Time;durP1;ratioP1;P1;durP2;ratioP2;P2;SDS_P1;SDS_P2;PMS_P1;PMS_P2;Temp;Humidity;BMP_temperature;BMP_pressure;BME280_temperature;BME280_humidity;BME280_pressure;Samples;Min_cycle;Max_cycle;Signal;HPM_P1;HPM_P2
2021/05/23 00:01:09;;;;;;;0.20;0.20;;;11.20;99.90;;;;;;5053886;28;20472;-70
2021/05/23 00:03:35;;;;;;;0.40;0.40;;;11.30;99.90;;;;;;5036234;28;20025;-70
2021/05/23 00:06:02;;;;;;;0.20;0.20;;;11.40;99.90;;;;;;5054070;28;20029;-70
2021/05/23 00:08:29;;;;;;;0.20;0.20;;;11.40;99.90;;;;;;5054011;28;20063;-70
2021/05/23 00:11:00;;;;;;;0.20;0.20;;;11.40;99.90;;;;;;5053823;28;20116;-70
2021/05/23 00:13:32;;;;;;;0.20;0.20;;;11.50;99.90;;;;;;5019359;28;20024;-70
2021/05/23 00:16:16;;;;;;;0.20;0.20;;;11.40;99.90;;;;;;5053822;28;20017;-70
2021/05/23 00:18:45;;;;;;;0.30;0.30;;;11.40;99.90;;;;;;5054061;28;20453;-70
2021/05/23 00:21:14;;;;;;;1.70;0.82;;;11.50;99.90;;;;;;5035664;28;20028;-70
2021/05/23 00:23:39;;;;;;;0.40;0.40;;;11.10;99.90;;;;;;5019305;28;20501;-70
2021/05/23 00:26:05;;;;;;;0.20;0.20;;;10.70;99.90;;;;;;5053489;28;20125;-71
2021/05/23 00:28:32;;;;;;;0.93;0.90;;;10.60;99.90;;;;;;5052954;28;20041;-70
2021/05/23 00:30:59;;;;;;;0.30;0.30;;;10.50;99.90;;;;;;5035633;28;20025;-70
2021/05/23 00:33:25;;;;;;;0.40;0.40;;;10.60;99.90;;;;;;5035572;28;20048;-71
2021/05/23 00:35:51;;;;;;;0.20;0.20;;;10.60;99.90;;;;;;5053434;28;20028;-70
2021/05/23 00:38:17;;;;;;;0.20;0.20;;;10.70;99.90;;;;;;5053370;28;20388;-71
2021/05/23 00:40:43;;;;;;;0.20;0.20;;;10.70;99.90;;;;;;5053239;28;20115;-70
2021/05/23 00:43:10;;;;;;;0.20;0.20;;;10.80;99.90;;;;;;5053330;28;20087;-70
2021/05/23 00:45:36;;;;;;;0.20;0.20;;;10.90;99.90;;;;;;5053248;28;20053;-70
2021/05/23 00:48:03;;;;;;;0.20;0.20;;;11.00;99.90;;;;;;5053205;28;20106;-70
2021/05/23 00:50:28;;;;;;;0.20;0.20;;;11.00;99.90;;;;;;5053056;28;20025;-70
2021/05/23 00:52:55;;;;;;;0.20;0.20;;;11.10;99.90;;;;;;5052965;28;20047;-70
2021/05/23 00:55:22;;;;;;;0.10;0.10;;;11.10;99.90;;;;;;5035172;28;20025;-70
2021/05/23 00:57:48;;;;;;;0.20;0.20;;;11.20;99.90;;;;;;5053219;28;20055;-71
2021/05/23 01:00:40;;;;;;;0.20;0.20;;;11.20;99.90;;;;;;5053112;28;20170;-71
2021/05/23 01:03:28;;;;;;;0.20;0.20;;;11.10;99.90;;;;;;5052860;28;20218;-71
2021/05/23 01:06:00;;;;;;;0.32;0.32;;;11.30;99.90;;;;;;5052739;28;20024;-70
2021/05/23 01:08:28;;;;;;;0.20;0.20;;;11.40;99.90;;;;;;5034990;28;20052;-70
2021/05/23 01:11:08;;;;;;;0.20;0.20;;;11.40;99.90;;;;;;5034890;28;20175;-70
2021/05/23 01:13:34;;;;;;;0.20;0.20;;;11.20;99.90;;;;;;5068153;28;20059;-70
2021/05/23 01:16:03;;;;;;;0.20;0.20;;;10.90;99.90;;;;;;5067961;28;20059;-70
2021/05/23 01:18:41;;;;;;;0.50;0.50;;;10.60;99.90;;;;;;5052513;28;20017;-70
2021/05/23 01:21:08;;;;;;;0.35;0.35;;;10.70;99.90;;;;;;5052503;28;20263;-70
2021/05/23 01:23:39;;;;;;;0.20;0.20;;;10.70;99.90;;;;;;5052469;28;20029;-70
2021/05/23 01:26:07;;;;;;;0.15;0.15;;;10.70;99.90;;;;;;5052401;28;20056;-70
2021/05/23 01:28:58;;;;;;;0.20;0.20;;;10.70;99.90;;;;;;5052425;28;20033;-71
2021/05/23 01:31:28;;;;;;;0.20;0.20;;;10.70;99.90;;;;;;5034081;28;20055;-70
2021/05/23 01:33:56;;;;;;;0.20;0.20;;;10.90;99.90;;;;;;5052471;28;20029;-70
2021/05/23 01:36:26;;;;;;;0.20;0.20;;;10.80;99.90;;;;;;5052172;28;20384;-70
2021/05/23 01:38:53;;;;;;;0.30;0.30;;;10.70;99.90;;;;;;5033328;28;20032;-71
2021/05/23 01:41:20;;;;;;;0.40;0.40;;;10.70;99.90;;;;;;5034389;28;20032;-70
2021/05/23 01:43:46;;;;;;;0.20;0.20;;;10.40;99.90;;;;;;5052220;28;20071;-70
2021/05/23 01:46:12;;;;;;;0.20;0.20;;;10.50;99.90;;;;;;5051987;28;20381;-71
2021/05/23 01:48:38;;;;;;;0.20;0.20;;;10.50;99.90;;;;;;5034185;28;20021;-70
2021/05/23 01:51:05;;;;;;;0.20;0.20;;;10.30;99.90;;;;;;5067441;28;20412;-70
2021/05/23 01:53:31;;;;;;;0.20;0.20;;;10.30;99.90;;;;;;5051998;28;20021;-70
2021/05/23 01:55:57;;;;;;;0.35;0.35;;;10.40;99.90;;;;;;5051904;28;20028;-70
2021/05/23 01:58:23;;;;;;;0.52;0.43;;;10.40;99.90;;;;;;5051960;28;20481;-70
2021/05/23 02:00:51;;;;;;;0.35;0.35;;;10.40;99.90;;;;;;5051853;28;20036;-70
2021/05/23 02:03:19;;;;;;;0.20;0.20;;;10.30;99.90;;;;;;5034398;28;20024;-70
2021/05/23 02:05:47;;;;;;;0.40;0.40;;;10.20;99.90;;;;;;5051812;28;20029;-70
2021/05/23 02:08:15;;;;;;;1.85;0.47;;;10.10;99.90;;;;;;5051850;28;20500;-70
2021/05/23 02:10:42;;;;;;;0.20;0.20;;;10.00;99.90;;;;;;5051633;28;20141;-70
2021/05/23 02:13:08;;;;;;;1.65;0.50;;;10.00;99.90;;;;;;5033864;28;20473;-70
2021/05/23 02:15:35;;;;;;;0.30;0.30;;;9.90;99.90;;;;;;5051724;28;20032;-70
2021/05/23 02:18:01;;;;;;;0.20;0.20;;;9.90;99.90;;;;;;5051866;28;20048;-71
2021/05/23 02:20:29;;;;;;;0.30;0.30;;;9.90;99.90;;;;;;5051695;28;20029;-69
2021/05/23 02:22:57;;;;;;;0.20;0.20;;;9.80;99.90;;;;;;5051742;28;20387;-70
2021/05/23 02:25:24;;;;;;;0.20;0.20;;;9.90;99.90;;;;;;5051699;28;20036;-70
2021/05/23 02:27:59;;;;;;;0.20;0.20;;;9.90;99.90;;;;;;5051713;28;20075;-70
2021/05/23 02:30:30;;;;;;;0.10;0.10;;;10.00;99.90;;;;;;5051581;28;20438;-70
2021/05/23 02:32:57;;;;;;;0.30;0.30;;;10.00;99.90;;;;;;5051600;28;20021;-70
2021/05/23 02:35:25;;;;;;;0.20;0.20;;;9.80;99.90;;;;;;5033785;28;20033;-70
2021/05/23 02:37:52;;;;;;;0.30;0.30;;;10.00;99.90;;;;;;5051578;28;20385;-70
2021/05/23 02:40:20;;;;;;;0.15;0.15;;;9.80;99.90;;;;;;5091643;23;20036;-76
2021/05/23 02:42:47;;;;;;;0.20;0.20;;;9.90;99.90;;;;;;5073580;28;20042;-75
2021/05/23 02:45:15;;;;;;;0.20;0.20;;;9.90;99.90;;;;;;5091701;28;20513;-75
2021/05/23 02:47:42;;;;;;;0.22;0.22;;;9.90;99.90;;;;;;5056728;28;20115;-75
2021/05/23 02:50:12;;;;;;;0.28;0.28;;;9.80;99.90;;;;;;5074605;28;20063;-74
2021/05/23 02:52:37;;;;;;;0.20;0.20;;;9.70;99.90;;;;;;5077093;28;20035;-76
2021/05/23 02:55:06;;;;;;;0.47;0.40;;;9.60;99.90;;;;;;5077464;28;20028;-75
2021/05/23 02:57:36;;;;;;;0.20;0.20;;;9.50;99.90;;;;;;5095519;28;20402;-75
2021/05/23 03:00:04;;;;;;;0.20;0.20;;;9.50;99.90;;;;;;5095710;28;20031;-75
2021/05/23 03:02:30;;;;;;;0.88;0.50;;;9.60;99.90;;;;;;5077367;28;20035;-76
2021/05/23 03:04:55;;;;;;;0.40;0.40;;;9.60;99.90;;;;;;5095743;28;20552;-75
2021/05/23 03:07:22;;;;;;;0.20;0.20;;;9.60;99.90;;;;;;5077478;28;20505;-75
2021/05/23 03:09:48;;;;;;;12.60;1.00;;;9.50;99.90;;;;;;5095326;28;20039;-75
2021/05/23 03:12:14;;;;;;;0.10;0.10;;;9.50;99.90;;;;;;5077309;28;20020;-75
2021/05/23 03:14:41;;;;;;;0.30;0.30;;;9.60;99.90;;;;;;5095280;28;20115;-76
2021/05/23 03:17:08;;;;;;;0.20;0.20;;;9.60;99.90;;;;;;5077084;28;20024;-75
2021/05/23 03:19:35;;;;;;;0.22;0.22;;;9.80;99.90;;;;;;5077007;28;20039;-76
2021/05/23 03:22:03;;;;;;;0.20;0.20;;;9.70;99.90;;;;;;5076821;28;20414;-75
2021/05/23 03:24:28;;;;;;;0.20;0.20;;;9.80;99.90;;;;;;5095252;28;20029;-75
2021/05/23 03:26:54;;;;;;;0.20;0.20;;;10.00;99.90;;;;;;5076773;28;20456;-76
2021/05/23 03:29:20;;;;;;;0.55;0.45;;;10.00;99.90;;;;;;5095039;28;20028;-75
2021/05/23 03:31:46;;;;;;;0.60;0.60;;;9.80;99.90;;;;;;5076847;28;20031;-75
2021/05/23 03:34:11;;;;;;;0.30;0.30;;;9.40;99.90;;;;;;5076777;28;20070;-75
2021/05/23 03:36:37;;;;;;;0.80;0.77;;;9.30;99.90;;;;;;5076555;28;20498;-75
2021/05/23 03:39:03;;;;;;;0.10;0.10;;;9.20;99.90;;;;;;5076661;28;20118;-74
2021/05/23 03:41:29;;;;;;;0.40;0.40;;;9.00;99.90;;;;;;5094868;28;20114;-75
2021/05/23 03:43:55;;;;;;;0.50;0.50;;;9.00;99.90;;;;;;5094774;28;20169;-75
2021/05/23 03:46:20;;;;;;;0.30;0.30;;;9.00;99.90;;;;;;5094641;28;20507;-76
2021/05/23 03:48:46;;;;;;;0.20;0.20;;;9.00;99.90;;;;;;5094747;28;20052;-75
2021/05/23 03:51:12;;;;;;;0.20;0.20;;;9.10;99.90;;;;;;5076377;28;20078;-75
2021/05/23 03:53:37;;;;;;;0.30;0.30;;;9.10;99.90;;;;;;5076314;28;20436;-75
2021/05/23 03:56:03;;;;;;;0.28;0.28;;;9.10;99.90;;;;;;5076266;28;20054;-76
2021/05/23 03:58:29;;;;;;;0.43;0.43;;;9.00;99.90;;;;;;5094523;28;20016;-75
2021/05/23 04:00:55;;;;;;;0.30;0.30;;;8.90;99.90;;;;;;5075973;28;20495;-75
2021/05/23 04:03:23;;;;;;;0.40;0.40;;;8.90;99.90;;;;;;5093577;28;20060;-75
2021/05/23 04:05:49;;;;;;;0.20;0.20;;;9.00;99.90;;;;;;5094117;28;20016;-75
2021/05/23 04:08:14;;;;;;;0.35;0.35;;;8.80;99.90;;;;;;5076098;28;20020;-75
2021/05/23 04:10:45;;;;;;;0.20;0.20;;;8.70;99.90;;;;;;5094170;28;20031;-75
2021/05/23 04:13:11;;;;;;;0.30;0.30;;;8.80;99.90;;;;;;5076022;28;20024;-75
2021/05/23 04:15:37;;;;;;;0.10;0.10;;;8.70;99.90;;;;;;5094300;28;20020;-76
2021/05/23 04:18:02;;;;;;;0.20;0.20;;;8.60;99.90;;;;;;5059296;28;20035;-75
2021/05/23 04:20:29;;;;;;;0.28;0.28;;;8.60;99.90;;;;;;5059108;28;20027;-76
2021/05/23 04:22:56;;;;;;;0.40;0.40;;;8.60;99.90;;;;;;5075883;28;20127;-75
2021/05/23 04:25:23;;;;;;;0.20;0.20;;;8.50;99.90;;;;;;5093956;28;20020;-75
2021/05/23 04:27:50;;;;;;;0.20;0.20;;;8.40;99.90;;;;;;5075544;28;20024;-75
2021/05/23 04:30:19;;;;;;;0.20;0.20;;;8.50;99.90;;;;;;5059078;28;20024;-75
2021/05/23 04:32:46;;;;;;;0.22;0.22;;;8.50;99.90;;;;;;5075885;28;20067;-75
2021/05/23 04:35:14;;;;;;;0.20;0.20;;;8.60;99.90;;;;;;5075682;28;20126;-75
2021/05/23 04:37:40;;;;;;;0.20;0.20;;;8.50;99.90;;;;;;5075560;28;20012;-75
2021/05/23 04:40:07;;;;;;;0.20;0.20;;;8.50;99.90;;;;;;5093483;28;20042;-75
2021/05/23 04:42:33;;;;;;;0.30;0.30;;;8.50;99.90;;;;;;5093621;28;20459;-75
2021/05/23 04:44:59;;;;;;;0.60;0.60;;;8.50;99.90;;;;;;5093551;28;20024;-75
2021/05/23 04:47:27;;;;;;;0.20;0.20;;;8.60;99.90;;;;;;5075159;28;20394;-75
2021/05/23 04:49:52;;;;;;;1.25;0.30;;;8.70;99.90;;;;;;5058543;28;20021;-74
2021/05/23 04:52:18;;;;;;;0.20;0.20;;;8.60;99.90;;;;;;5093215;28;20031;-76
2021/05/23 04:54:45;;;;;;;0.15;0.15;;;8.70;99.90;;;;;;5093369;28;20498;-76
2021/05/23 04:57:10;;;;;;;0.20;0.20;;;8.80;99.90;;;;;;5093137;28;20538;-75
2021/05/23 04:59:36;;;;;;;0.70;0.70;;;8.60;99.90;;;;;;5093401;28;20101;-75
2021/05/23 05:02:03;;;;;;;0.20;0.20;;;8.60;99.90;;;;;;5093128;28;20479;-76
2021/05/23 05:04:29;;;;;;;0.20;0.20;;;8.70;99.90;;;;;;5093363;28;20020;-76
2021/05/23 05:06:55;;;;;;;0.10;0.10;;;8.70;99.90;;;;;;5092770;28;20143;-76
2021/05/23 05:09:21;;;;;;;0.20;0.20;;;8.80;99.90;;;;;;5093136;28;20115;-75
2021/05/23 05:11:47;;;;;;;0.20;0.20;;;8.80;99.90;;;;;;5074680;28;20083;-75
2021/05/23 05:14:13;;;;;;;0.20;0.20;;;8.60;99.90;;;;;;5058048;28;20036;-75
2021/05/23 05:16:40;;;;;;;0.20;0.20;;;8.70;99.90;;;;;;5074734;28;20016;-76
2021/05/23 05:19:07;;;;;;;0.20;0.20;;;8.70;99.90;;;;;;5074893;28;20130;-76
2021/05/23 05:21:33;;;;;;;0.20;0.20;;;8.50;99.90;;;;;;5058006;28;20042;-76
2021/05/23 05:23:58;;;;;;;0.30;0.30;;;8.50;99.90;;;;;;5092838;28;20023;-75
2021/05/23 05:26:24;;;;;;;0.55;0.45;;;8.60;99.90;;;;;;5092633;28;20024;-75
2021/05/23 05:28:50;;;;;;;0.15;0.15;;;8.40;99.90;;;;;;5092823;28;20031;-75
2021/05/23 05:31:16;;;;;;;0.20;0.20;;;8.30;99.90;;;;;;5074490;28;20028;-75
2021/05/23 05:33:42;;;;;;;0.20;0.20;;;8.20;99.90;;;;;;5074379;28;20032;-74
2021/05/23 05:36:08;;;;;;;0.13;0.13;;;8.10;99.90;;;;;;5092543;28;20070;-75
2021/05/23 05:38:33;;;;;;;0.30;0.30;;;8.20;99.90;;;;;;5092576;28;20028;-75
2021/05/23 05:41:00;;;;;;;0.20;0.20;;;8.30;99.90;;;;;;5074276;28;20081;-75
2021/05/23 05:43:26;;;;;;;0.20;0.20;;;8.30;99.90;;;;;;5074335;28;20028;-75
2021/05/23 05:45:51;;;;;;;0.25;0.25;;;8.40;99.90;;;;;;5074160;28;20035;-75
2021/05/23 05:48:17;;;;;;;2.05;0.35;;;8.40;99.90;;;;;;5092714;28;20099;-75
2021/05/23 05:50:43;;;;;;;0.20;0.20;;;8.50;99.90;;;;;;5092040;28;20027;-75
2021/05/23 05:53:09;;;;;;;0.20;0.20;;;8.50;99.90;;;;;;5092328;28;20024;-76
2021/05/23 05:55:35;;;;;;;0.20;0.20;;;8.50;99.90;;;;;;5074063;28;20084;-75
2021/05/23 05:58:01;;;;;;;0.43;0.43;;;8.50;99.90;;;;;;5065688;28;20023;-76
2021/05/23 06:00:26;;;;;;;0.20;0.20;;;8.50;99.90;;;;;;5087676;28;20027;-74
2021/05/23 06:02:52;;;;;;;0.20;0.20;;;8.40;99.90;;;;;;5092227;28;20400;-75
2021/05/23 06:05:18;;;;;;;0.17;0.17;;;8.30;99.90;;;;;;5085483;28;20027;-75
2021/05/23 06:07:45;;;;;;;0.20;0.20;;;8.30;99.90;;;;;;5112381;28;20023;-75
2021/05/23 06:10:13;;;;;;;0.20;0.20;;;8.40;99.90;;;;;;5112428;28;20053;-76
2021/05/23 06:12:39;;;;;;;0.20;0.20;;;8.60;99.90;;;;;;5112558;28;20130;-76
2021/05/23 06:15:07;;;;;;;0.20;0.20;;;8.50;99.90;;;;;;5094296;28;20023;-75
2021/05/23 06:17:33;;;;;;;0.20;0.20;;;8.20;99.90;;;;;;5112305;28;20015;-75
2021/05/23 06:19:59;;;;;;;0.30;0.30;;;8.30;99.90;;;;;;5112229;28;20077;-75
2021/05/23 06:22:25;;;;;;;0.20;0.20;;;8.30;99.90;;;;;;5094129;28;20016;-75
2021/05/23 06:24:51;;;;;;;0.30;0.30;;;8.40;99.90;;;;;;5094645;28;20540;-75
2021/05/23 06:27:17;;;;;;;1.95;0.45;;;8.40;99.90;;;;;;5097929;28;20024;-76
2021/05/23 06:29:45;;;;;;;0.85;0.68;;;8.30;99.90;;;;;;5115068;28;20095;-75
2021/05/23 06:32:11;;;;;;;0.20;0.20;;;8.40;99.90;;;;;;5096152;28;20024;-76
2021/05/23 06:34:38;;;;;;;0.20;0.20;;;8.40;99.90;;;;;;5095943;28;20028;-75
2021/05/23 06:37:04;;;;;;;0.20;0.20;;;8.30;99.90;;;;;;5077725;28;20032;-75
2021/05/23 06:39:29;;;;;;;0.30;0.30;;;8.50;99.90;;;;;;5077844;28;20060;-75
2021/05/23 06:41:55;;;;;;;0.20;0.20;;;8.50;99.90;;;;;;5077850;28;20077;-75
2021/05/23 06:44:21;;;;;;;0.20;0.20;;;8.20;99.90;;;;;;5095903;28;20099;-76
2021/05/23 06:46:47;;;;;;;0.22;0.22;;;8.20;99.90;;;;;;5077540;28;20162;-75
2021/05/23 06:49:13;;;;;;;0.40;0.40;;;8.00;99.90;;;;;;5077529;28;20387;-75
2021/05/23 06:51:38;;;;;;;0.30;0.30;;;8.10;99.90;;;;;;5095425;28;20024;-75
2021/05/23 06:54:05;;;;;;;0.20;0.20;;;8.10;99.90;;;;;;5095700;28;20429;-75
2021/05/23 06:56:31;;;;;;;0.20;0.20;;;7.90;99.90;;;;;;5095360;28;20103;-75
2021/05/23 06:58:57;;;;;;;0.20;0.20;;;8.20;99.90;;;;;;5077531;28;20024;-75
2021/05/23 07:01:23;;;;;;;0.20;0.20;;;8.10;99.90;;;;;;5077511;28;20127;-75
2021/05/23 07:03:49;;;;;;;0.20;0.20;;;8.10;99.90;;;;;;5078679;28;20035;-75
2021/05/23 07:06:15;;;;;;;0.20;0.20;;;8.00;99.90;;;;;;5115700;28;20026;-75
2021/05/23 07:08:41;;;;;;;0.30;0.30;;;8.10;99.90;;;;;;5097591;28;20039;-75
2021/05/23 07:11:06;;;;;;;0.20;0.20;;;8.10;99.90;;;;;;5097459;28;20432;-75
2021/05/23 07:13:32;;;;;;;0.28;0.28;;;8.20;99.90;;;;;;5080409;28;20031;-75
2021/05/23 07:15:58;;;;;;;0.30;0.30;;;8.30;99.90;;;;;;5115522;28;20053;-75
2021/05/23 07:18:24;;;;;;;0.20;0.20;;;8.30;99.90;;;;;;5080498;28;20161;-75
2021/05/23 07:20:51;;;;;;;0.30;0.30;;;8.20;99.90;;;;;;5097280;28;20020;-75
2021/05/23 07:23:17;;;;;;;0.40;0.40;;;8.30;99.90;;;;;;5097298;28;20076;-75
2021/05/23 07:25:42;;;;;;;2.35;2.25;;;8.00;99.90;;;;;;5107991;28;20035;-75
2021/05/23 07:28:08;;;;;;;0.30;0.30;;;8.00;99.90;;;;;;5095054;28;20024;-75
2021/05/23 07:30:34;;;;;;;0.20;0.20;;;8.10;99.90;;;;;;5076936;28;20024;-75
2021/05/23 07:33:00;;;;;;;0.65;0.40;;;8.20;99.90;;;;;;5076884;28;20633;-75
2021/05/23 07:35:26;;;;;;;0.20;0.20;;;8.20;99.90;;;;;;5094929;28;20468;-76
2021/05/23 07:37:52;;;;;;;0.20;0.20;;;8.40;99.90;;;;;;5094648;28;20426;-76
2021/05/23 07:40:18;;;;;;;0.20;0.20;;;8.30;99.90;;;;;;5076602;28;20092;-76
2021/05/23 07:42:44;;;;;;;0.20;0.20;;;8.40;99.90;;;;;;5076713;28;20051;-75
2021/05/23 07:45:11;;;;;;;0.20;0.20;;;8.30;99.90;;;;;;5074802;28;20106;-75
2021/05/23 07:47:37;;;;;;;0.20;0.20;;;8.40;99.90;;;;;;5076255;28;20024;-76
2021/05/23 07:50:05;;;;;;;0.17;0.17;;;8.50;99.90;;;;;;5076422;28;20028;-76
2021/05/23 07:52:31;;;;;;;0.95;0.63;;;8.50;99.90;;;;;;5094252;28;20116;-76
2021/05/23 07:54:59;;;;;;;0.20;0.20;;;8.30;99.90;;;;;;5076276;28;20103;-75
2021/05/23 07:57:25;;;;;;;0.10;0.10;;;8.40;99.90;;;;;;5094390;28;20065;-75
2021/05/23 07:59:52;;;;;;;0.10;0.10;;;8.30;99.90;;;;;;5094338;28;20418;-75
2021/05/23 08:02:18;;;;;;;0.45;0.22;;;8.50;99.90;;;;;;5059709;28;20154;-76
2021/05/23 08:04:43;;;;;;;0.13;0.13;;;8.40;99.90;;;;;;5103268;28;20058;-75
2021/05/23 08:07:09;;;;;;;0.20;0.20;;;8.40;99.90;;;;;;5114592;28;20047;-75
2021/05/23 08:09:35;;;;;;;0.17;0.17;;;8.50;99.90;;;;;;5079386;28;20569;-76
2021/05/23 08:12:01;;;;;;;0.20;0.20;;;8.50;99.90;;;;;;5114486;28;20515;-75
2021/05/23 08:14:26;;;;;;;0.20;0.20;;;8.50;99.90;;;;;;5114493;28;20386;-75
2021/05/23 08:16:52;;;;;;;0.20;0.20;;;8.60;99.90;;;;;;5114330;28;20024;-74
2021/05/23 08:19:19;;;;;;;0.13;0.13;;;8.60;99.90;;;;;;5096246;28;20043;-76
2021/05/23 08:21:46;;;;;;;0.10;0.10;;;8.70;99.90;;;;;;5079190;28;20020;-76
2021/05/23 08:24:12;;;;;;;0.20;0.20;;;9.00;99.90;;;;;;5095877;28;20038;-75
2021/05/23 08:26:38;;;;;;;0.20;0.20;;;8.90;99.90;;;;;;5095965;28;20423;-75
2021/05/23 08:29:05;;;;;;;10.98;0.70;;;8.80;99.90;;;;;;5095971;28;20030;-76
2021/05/23 08:31:31;;;;;;;0.30;0.30;;;8.80;99.90;;;;;;5114178;28;20024;-75
2021/05/23 08:33:57;;;;;;;0.20;0.20;;;8.70;99.90;;;;;;5095998;28;20096;-75
2021/05/23 08:36:23;;;;;;;0.30;0.30;;;8.60;99.90;;;;;;5095700;28;20028;-75
2021/05/23 08:38:49;;;;;;;0.93;0.50;;;8.70;99.90;;;;;;5113850;28;20022;-75
2021/05/23 08:41:17;;;;;;;0.25;0.25;;;8.70;99.90;;;;;;5118950;22;20052;-88
2021/05/23 08:43:43;;;;;;;0.43;0.43;;;8.80;99.90;;;;;;5059471;28;20024;-90
2021/05/23 08:46:09;;;;;;;0.20;0.20;;;8.80;99.90;;;;;;5059424;28;20031;-91
2021/05/23 08:48:47;;;;;;;0.30;0.30;;;8.90;99.90;;;;;;5076278;28;20024;-91
2021/05/23 08:51:15;;;;;;;0.20;0.20;;;9.00;99.90;;;;;;5060294;28;20052;-91
2021/05/23 08:53:43;;;;;;;6.05;0.30;;;9.00;99.90;;;;;;5059939;28;20440;-91
2021/05/23 08:56:09;;;;;;;0.20;0.20;;;9.00;99.90;;;;;;5074066;28;20087;-91
2021/05/23 08:58:35;;;;;;;0.10;0.10;;;9.20;99.90;;;;;;5085177;28;20032;-92
2021/05/23 09:01:00;;;;;;;0.20;0.20;;;9.20;99.90;;;;;;5084447;28;20039;-90
2021/05/23 09:03:26;;;;;;;0.20;0.20;;;9.50;99.90;;;;;;5084155;28;20123;-90
2021/05/23 09:05:56;;;;;;;0.20;0.20;;;9.40;99.90;;;;;;5084102;28;20012;-91
2021/05/23 09:08:28;;;;;;;0.30;0.30;;;9.40;99.90;;;;;;5076428;28;20050;-91
2021/05/23 09:10:57;;;;;;;0.10;0.10;;;9.50;99.90;;;;;;5059826;28;20027;-92
2021/05/23 09:13:40;;;;;;;0.20;0.20;;;9.50;99.90;;;;;;5064554;28;20036;-92
2021/05/23 09:16:10;;;;;;;0.20;0.20;;;10.00;99.90;;;;;;5058536;28;20110;-91
2021/05/23 09:18:41;;;;;;;0.10;0.10;;;10.20;99.90;;;;;;5058900;28;20063;-89
2021/05/23 09:21:08;;;;;;;0.20;0.20;;;10.40;99.90;;;;;;5058803;28;20024;-89
2021/05/23 09:23:45;;;;;;;0.20;0.20;;;10.40;99.90;;;;;;5058918;28;20031;-89
2021/05/23 09:26:22;;;;;;;0.20;0.20;;;10.20;99.90;;;;;;5056938;28;20024;-88
2021/05/23 09:28:48;;;;;;;0.20;0.20;;;10.30;99.90;;;;;;5058793;28;20028;-89
2021/05/23 09:31:17;;;;;;;0.20;0.20;;;10.00;99.90;;;;;;5058058;28;20484;-88
2021/05/23 09:33:45;;;;;;;0.20;0.20;;;10.30;99.90;;;;;;5074697;28;20028;-90
2021/05/23 09:36:11;;;;;;;0.10;0.10;;;10.70;99.90;;;;;;5057599;28;20064;-90
2021/05/23 09:39:00;;;;;;;0.20;0.20;;;11.30;99.90;;;;;;5073898;28;20114;-91
2021/05/23 09:41:31;;;;;;;0.20;0.20;;;11.60;99.90;;;;;;5057098;28;20036;-90
2021/05/23 09:44:14;;;;;;;0.20;0.20;;;11.50;99.90;;;;;;5058150;28;20024;-89
2021/05/23 09:46:54;;;;;;;0.10;0.10;;;11.50;99.90;;;;;;5058344;28;20035;-89
2021/05/23 09:49:21;;;;;;;0.10;0.10;;;12.40;99.90;;;;;;5062157;28;20023;-89
2021/05/23 09:51:55;;;;;;;0.28;0.28;;;12.80;99.90;;;;;;5062088;28;20027;-91
2021/05/23 09:54:24;;;;;;;3.50;1.45;;;13.30;99.90;;;;;;5060812;28;20020;-88
2021/05/23 09:56:50;;;;;;;0.52;0.50;;;13.00;98.10;;;;;;5058345;28;20027;-89
2021/05/23 09:59:25;;;;;;;0.30;0.30;;;12.80;99.90;;;;;;5066253;28;20027;-89
2021/05/23 10:02:04;;;;;;;1.00;0.40;;;12.30;96.50;;;;;;5077209;28;20065;-89
2021/05/23 10:04:30;;;;;;;4.13;2.47;;;12.00;99.30;;;;;;5091710;28;20031;-88
2021/05/23 10:07:12;;;;;;;0.35;0.35;;;11.60;97.60;;;;;;5069104;28;20020;-89
2021/05/23 10:09:40;;;;;;;0.10;0.10;;;11.30;99.00;;;;;;5057859;28;20032;-88
2021/05/23 10:12:31;;;;;;;0.20;0.20;;;11.50;99.90;;;;;;5058172;28;20065;-89
2021/05/23 10:15:05;;;;;;;0.20;0.20;;;11.70;99.90;;;;;;5064527;28;20059;-89
2021/05/23 10:17:34;;;;;;;0.10;0.10;;;11.90;99.90;;;;;;5076821;28;20044;-90
2021/05/23 10:20:01;;;;;;;0.20;0.20;;;12.10;99.90;;;;;;5077324;28;20016;-90
2021/05/23 10:22:31;;;;;;;0.68;0.50;;;12.10;99.90;;;;;;5077232;28;20492;-90
2021/05/23 10:25:02;;;;;;;0.20;0.20;;;12.10;99.90;;;;;;5077431;28;20055;-90
2021/05/23 10:27:34;;;;;;;0.10;0.10;;;12.20;99.90;;;;;;5077738;28;20433;-91
2021/05/23 10:30:01;;;;;;;0.10;0.10;;;12.40;99.90;;;;;;5077640;28;20384;-91
2021/05/23 10:32:34;;;;;;;0.10;0.10;;;12.50;99.30;;;;;;5069714;28;20036;-91
2021/05/23 10:35:15;;;;;;;0.20;0.20;;;12.90;98.00;;;;;;5057719;28;20024;-91
2021/05/23 10:37:46;;;;;;;0.68;0.40;;;13.70;92.70;;;;;;5057907;28;20103;-90
2021/05/23 10:40:25;;;;;;;0.10;0.10;;;13.40;88.10;;;;;;5058238;28;20393;-90
2021/05/23 10:42:54;;;;;;;0.20;0.20;;;13.00;93.10;;;;;;5058145;28;20028;-90
2021/05/23 10:45:22;;;;;;;0.20;0.20;;;13.00;90.90;;;;;;5057825;28;20028;-90
2021/05/23 10:47:47;;;;;;;0.20;0.20;;;13.60;90.60;;;;;;5057349;28;20627;-90
2021/05/23 10:50:14;;;;;;;0.20;0.20;;;14.20;85.90;;;;;;5073953;28;20046;-89
2021/05/23 10:52:40;;;;;;;0.30;0.30;;;13.80;84.20;;;;;;5057057;28;20095;-90
2021/05/23 10:55:16;;;;;;;0.22;0.22;;;14.60;82.60;;;;;;5057277;28;20392;-90
2021/05/23 10:58:01;;;;;;;0.95;0.82;;;14.90;77.30;;;;;;5057378;28;20054;-90
2021/05/23 11:00:31;;;;;;;0.20;0.20;;;15.20;76.50;;;;;;5056987;28;20020;-90
2021/05/23 11:02:57;;;;;;;0.10;0.10;;;14.80;78.10;;;;;;5057418;28;20032;-90
2021/05/23 11:05:27;;;;;;;0.15;0.15;;;14.40;79.70;;;;;;5057254;28;20020;-91
2021/05/23 11:08:08;;;;;;;0.10;0.10;;;14.00;79.50;;;;;;5057118;28;20020;-90
2021/05/23 11:10:45;;;;;;;0.10;0.10;;;13.90;79.70;;;;;;5073854;28;20541;-90
2021/05/23 11:13:34;;;;;;;1.35;0.52;;;14.60;78.40;;;;;;5077447;28;20074;-90
2021/05/23 11:16:16;;;;;;;0.25;0.25;;;14.80;74.30;;;;;;5069583;28;20035;-90
2021/05/23 11:18:42;;;;;;;0.17;0.17;;;13.90;74.40;;;;;;5060648;28;20024;-89
2021/05/23 11:21:12;;;;;;;0.10;0.10;;;13.50;78.20;;;;;;5060958;28;20032;-90
2021/05/23 11:23:58;;;;;;;0.20;0.20;;;13.40;77.10;;;;;;5060618;28;20032;-90
2021/05/23 11:26:25;;;;;;;0.10;0.10;;;13.90;77.30;;;;;;5060170;28;20024;-90
2021/05/23 11:28:53;;;;;;;0.38;0.22;;;15.10;75.20;;;;;;5060799;28;20055;-89
2021/05/23 11:31:26;;;;;;;0.10;0.10;;;15.70;68.00;;;;;;5076921;28;20028;-90
2021/05/23 11:33:52;;;;;;;0.10;0.10;;;16.20;65.90;;;;;;5060306;28;20067;-89
2021/05/23 11:36:23;;;;;;;0.25;0.25;;;16.00;65.10;;;;;;5060348;28;20056;-90
2021/05/23 11:38:48;;;;;;;0.20;0.20;;;16.10;63.80;;;;;;5077137;28;20020;-90
2021/05/23 11:41:45;;;;;;;0.20;0.20;;;16.30;63.20;;;;;;5060175;28;20024;-90
2021/05/23 11:44:13;;;;;;;0.13;0.13;;;16.20;65.30;;;;;;5060242;28;20087;-90
2021/05/23 11:46:44;;;;;;;0.20;0.20;;;16.40;64.40;;;;;;5060422;28;20031;-90
2021/05/23 11:49:18;;;;;;;0.10;0.10;;;16.70;62.30;;;;;;5060202;28;20504;-90
2021/05/23 11:51:43;;;;;;;0.20;0.20;;;16.60;60.00;;;;;;5077344;28;20262;-90
2021/05/23 11:54:09;;;;;;;0.22;0.22;;;16.00;60.90;;;;;;5060053;28;20122;-91
2021/05/23 11:56:36;;;;;;;0.10;0.10;;;16.20;59.70;;;;;;5059985;28;20075;-91
2021/05/23 11:59:07;;;;;;;0.52;0.50;;;16.00;62.20;;;;;;5060083;28;20020;-91
2021/05/23 12:01:34;;;;;;;0.68;0.45;;;16.40;62.20;;;;;;5076875;28;20511;-90
2021/05/23 12:04:01;;;;;;;0.30;0.30;;;16.50;59.60;;;;;;5059914;28;20032;-90
2021/05/23 12:06:28;;;;;;;0.10;0.10;;;16.70;60.50;;;;;;5059994;28;20096;-90
2021/05/23 12:09:10;;;;;;;0.10;0.10;;;16.40;58.10;;;;;;5059855;28;20035;-90
2021/05/23 12:11:37;;;;;;;;;;;16.30;61.40;;;;;;5060009;28;20028;-91
2021/05/23 12:14:03;;;;;;;0.10;0.10;;;16.60;59.40;;;;;;5059941;28;19908;-91
2021/05/23 12:16:28;;;;;;;0.10;0.10;;;16.80;58.90;;;;;;5059334;28;20058;-91
2021/05/23 12:18:56;;;;;;;0.10;0.10;;;16.30;57.10;;;;;;5059507;28;20023;-91
2021/05/23 12:21:26;;;;;;;2.03;0.68;;;15.90;59.60;;;;;;5059835;28;20028;-91
2021/05/23 12:23:56;;;;;;;0.40;0.38;;;15.50;57.50;;;;;;5075152;28;20020;-90
2021/05/23 12:26:24;;;;;;;0.20;0.20;;;15.20;58.80;;;;;;5059521;28;20397;-90
2021/05/23 12:28:52;;;;;;;0.15;0.15;;;15.20;58.80;;;;;;5059305;28;20538;-91
2021/05/23 12:31:20;;;;;;;0.10;0.10;;;15.50;59.00;;;;;;5059339;28;20516;-91
2021/05/23 12:33:54;;;;;;;0.10;0.10;;;15.90;58.00;;;;;;5059406;28;20092;-91
2021/05/23 12:36:25;;;;;;;0.10;0.10;;;15.60;55.20;;;;;;5059180;28;20430;-91
2021/05/23 12:38:58;;;;;;;0.40;0.40;;;15.50;56.20;;;;;;5059808;28;20354;-90
2021/05/23 12:41:39;;;;;;;0.52;0.30;;;15.80;55.90;;;;;;5059058;28;20032;-91
2021/05/23 12:44:19;;;;;;;0.20;0.20;;;15.50;55.80;;;;;;5059391;28;20028;-90
2021/05/23 12:46:46;;;;;;;0.17;0.17;;;15.60;55.50;;;;;;5059383;28;20100;-91
2021/05/23 12:49:21;;;;;;;0.17;0.17;;;15.70;54.80;;;;;;5058909;28;20034;-89
2021/05/23 12:51:48;;;;;;;0.10;0.10;;;15.40;55.10;;;;;;5059212;28;20024;-91
2021/05/23 12:54:32;;;;;;;0.40;0.40;;;15.30;54.10;;;;;;5075776;28;20049;-90
2021/05/23 12:57:03;;;;;;;0.80;0.80;;;15.50;54.90;;;;;;5058748;28;20020;-90
2021/05/23 12:59:36;;;;;;;0.10;0.10;;;15.60;55.30;;;;;;5058750;28;20027;-90